createdAt,value
2019-03-17T00:00:08.466Z,998.34
2019-03-17T00:01:08.444Z,998.28
2019-03-17T00:02:08.433Z,998.30
2019-03-17T00:03:08.426Z,998.33
2019-03-17T00:04:08.686Z,998.32
2019-03-17T00:05:08.404Z,998.34
2019-03-17T00:06:08.390Z,998.32
2019-03-17T00:07:08.379Z,998.31
2019-03-17T00:08:08.368Z,998.25
2019-03-17T00:09:08.361Z,998.28
2019-03-17T00:10:08.621Z,998.29
2019-03-17T00:11:08.333Z,998.30
2019-03-17T00:12:08.324Z,998.25
2019-03-17T00:13:08.311Z,998.25
2019-03-17T00:14:08.299Z,998.22
2019-03-17T00:15:08.293Z,998.18
2019-03-17T00:16:08.603Z,998.22
2019-03-17T00:17:08.266Z,998.16
2019-03-17T00:18:08.255Z,998.15
2019-03-17T00:19:08.248Z,998.10
2019-03-17T00:20:08.233Z,998.10
2019-03-17T00:21:08.222Z,998.15
2019-03-17T00:22:08.238Z,998.10
2019-03-17T00:23:08.203Z,998.04
2019-03-17T00:24:08.190Z,998.01
2019-03-17T00:25:09.827Z,998.00
2019-03-17T00:26:08.166Z,997.95
2019-03-17T00:27:08.156Z,997.89
2019-03-17T00:28:08.429Z,997.91
2019-03-17T00:29:08.134Z,997.90
2019-03-17T00:30:08.122Z,997.89
2019-03-17T00:31:08.115Z,997.87
2019-03-17T00:32:08.101Z,997.84
2019-03-17T00:33:08.088Z,997.80
2019-03-17T00:34:08.089Z,997.80
2019-03-17T00:35:08.069Z,997.77
2019-03-17T00:36:08.060Z,997.77
2019-03-17T00:37:08.050Z,997.80
2019-03-17T00:38:08.033Z,997.78
2019-03-17T00:39:08.022Z,997.79
2019-03-17T00:40:08.292Z,997.82
2019-03-17T00:41:08.009Z,997.80
2019-03-17T00:42:07.988Z,997.78
2019-03-17T00:43:07.979Z,997.70
2019-03-17T00:44:07.970Z,997.72
2019-03-17T00:45:07.956Z,997.73
2019-03-17T00:46:07.950Z,997.69
2019-03-17T00:47:10.642Z,997.68
2019-03-17T00:48:07.933Z,997.68
2019-03-17T00:49:07.911Z,997.59
2019-03-17T00:50:07.900Z,997.61
2019-03-17T00:51:07.892Z,997.54
2019-03-17T00:52:08.213Z,997.52
2019-03-17T00:53:07.868Z,997.60
2019-03-17T00:54:07.855Z,997.49
2019-03-17T00:55:07.844Z,997.46
2019-03-17T00:56:07.832Z,997.49
2019-03-17T00:57:07.823Z,997.45
2019-03-17T00:58:07.817Z,997.39
2019-03-17T00:59:07.803Z,997.37
2019-03-17T01:00:07.788Z,997.37
2019-03-17T01:01:07.783Z,997.35
2019-03-17T01:02:07.767Z,997.37
2019-03-17T01:03:07.755Z,997.39
2019-03-17T01:04:08.238Z,997.35
2019-03-17T01:05:07.736Z,997.32
2019-03-17T01:06:07.722Z,997.28
2019-03-17T01:07:07.711Z,997.30
2019-03-17T01:08:07.700Z,997.32
2019-03-17T01:09:07.690Z,997.31
2019-03-17T01:10:07.964Z,997.26
2019-03-17T01:11:07.668Z,997.24
2019-03-17T01:12:07.656Z,997.23
2019-03-17T01:13:07.643Z,997.19
2019-03-17T01:14:07.638Z,997.18
2019-03-17T01:15:07.625Z,997.13
2019-03-17T01:16:07.896Z,997.14
2019-03-17T01:17:07.601Z,997.14
2019-03-17T01:18:07.589Z,997.16
2019-03-17T01:19:07.577Z,997.19
2019-03-17T01:20:07.590Z,997.19
2019-03-17T01:21:07.557Z,997.18
2019-03-17T01:22:07.564Z,997.12
2019-03-17T01:23:07.534Z,997.08
2019-03-17T01:24:10.197Z,997.09
2019-03-17T01:25:07.511Z,997.08
2019-03-17T01:26:07.501Z,997.06
2019-03-17T01:27:07.489Z,997.02
2019-03-17T01:28:07.763Z,997.02
2019-03-17T01:29:07.466Z,997.07
2019-03-17T01:30:07.455Z,997.03
2019-03-17T01:31:07.443Z,997.00
2019-03-17T01:32:07.433Z,997.02
2019-03-17T01:33:07.426Z,997.05
2019-03-17T01:34:07.748Z,997.02
2019-03-17T01:35:09.489Z,996.98
2019-03-17T01:36:07.388Z,996.98
2019-03-17T01:37:07.378Z,996.97
2019-03-17T01:38:07.366Z,996.93
2019-03-17T01:39:07.354Z,996.93
2019-03-17T01:40:07.364Z,996.89
2019-03-17T01:41:07.332Z,996.93
2019-03-17T01:42:07.321Z,997.01
2019-03-17T01:43:07.316Z,996.93
2019-03-17T01:44:07.301Z,996.95
2019-03-17T01:45:07.288Z,996.91
2019-03-17T01:46:07.287Z,996.89
2019-03-17T01:47:07.269Z,996.87
2019-03-17T01:48:07.254Z,996.83
2019-03-17T01:49:07.258Z,996.93
2019-03-17T01:50:07.233Z,996.88
2019-03-17T01:51:07.222Z,996.80
2019-03-17T01:52:07.222Z,996.87
2019-03-17T01:53:07.200Z,996.89
2019-03-17T01:54:07.187Z,996.79
2019-03-17T01:55:07.176Z,996.83
2019-03-17T01:56:07.169Z,996.83
2019-03-17T01:57:07.159Z,996.83
2019-03-17T01:58:07.438Z,996.79
2019-03-17T01:59:07.133Z,996.77
2019-03-17T02:00:07.124Z,996.78
2019-03-17T02:01:07.112Z,996.77
2019-03-17T02:02:07.106Z,996.79
2019-03-17T02:03:07.087Z,996.77
2019-03-17T02:04:07.086Z,996.85
2019-03-17T02:05:07.072Z,996.82
2019-03-17T02:06:07.059Z,996.77
2019-03-17T02:07:07.043Z,996.77
2019-03-17T02:08:07.039Z,996.71
2019-03-17T02:09:07.026Z,996.73
2019-03-17T02:10:07.277Z,996.75
2019-03-17T02:11:07.001Z,996.74
2019-03-17T02:12:06.987Z,996.75
2019-03-17T02:13:06.978Z,996.73
2019-03-17T02:14:06.967Z,996.69
2019-03-17T02:15:06.955Z,996.68
2019-03-17T02:16:06.965Z,996.70
2019-03-17T02:17:06.931Z,996.65
2019-03-17T02:18:06.921Z,996.65
2019-03-17T02:19:06.911Z,996.63
2019-03-17T02:20:06.903Z,996.67
2019-03-17T02:21:06.888Z,996.66
2019-03-17T02:22:07.205Z,996.58
2019-03-17T02:23:06.871Z,996.55
2019-03-17T02:24:06.854Z,996.50
2019-03-17T02:25:06.848Z,996.57
2019-03-17T02:26:06.830Z,996.52
2019-03-17T02:27:06.826Z,996.54
2019-03-17T02:28:06.825Z,996.59
2019-03-17T02:29:06.798Z,996.61
2019-03-17T02:30:06.793Z,996.56
2019-03-17T02:31:06.784Z,996.53
2019-03-17T02:32:06.900Z,996.54
2019-03-17T02:33:06.755Z,996.55
2019-03-17T02:34:06.752Z,996.53
2019-03-17T02:35:06.732Z,996.50
2019-03-17T02:36:06.721Z,996.51
2019-03-17T02:37:06.711Z,996.45
2019-03-17T02:38:06.700Z,996.44
2019-03-17T02:39:06.749Z,996.44
2019-03-17T02:40:06.702Z,996.52
2019-03-17T02:41:06.673Z,996.53
2019-03-17T02:42:06.658Z,996.41
2019-03-17T02:43:06.649Z,996.43
2019-03-17T02:44:06.631Z,996.49
2019-03-17T02:45:06.620Z,996.42
2019-03-17T02:46:06.636Z,996.40
2019-03-17T02:47:06.598Z,996.41
2019-03-17T02:48:06.589Z,996.43
2019-03-17T02:49:06.577Z,996.42
2019-03-17T02:50:06.566Z,996.43
2019-03-17T02:51:06.554Z,996.38
2019-03-17T02:52:06.874Z,996.37
2019-03-17T02:53:06.535Z,996.31
2019-03-17T02:54:06.525Z,996.34
2019-03-17T02:55:06.509Z,996.35
2019-03-17T02:56:06.502Z,996.38
2019-03-17T02:57:06.486Z,996.37
2019-03-17T02:58:06.755Z,996.34
2019-03-17T02:59:06.465Z,996.34
2019-03-17T03:00:06.455Z,996.30
2019-03-17T03:01:06.443Z,996.33
2019-03-17T03:02:06.442Z,996.30
2019-03-17T03:03:06.421Z,996.39
2019-03-17T03:04:06.716Z,996.36
2019-03-17T03:05:06.401Z,996.31
2019-03-17T03:06:06.398Z,996.29
2019-03-17T03:07:06.375Z,996.28
2019-03-17T03:08:06.368Z,996.31
2019-03-17T03:09:06.358Z,996.24
2019-03-17T03:10:06.353Z,996.24
2019-03-17T03:11:06.340Z,996.26
2019-03-17T03:12:06.323Z,996.22
2019-03-17T03:13:06.312Z,996.22
2019-03-17T03:14:06.305Z,996.15
2019-03-17T03:15:06.289Z,996.15
2019-03-17T03:16:06.583Z,996.14
2019-03-17T03:17:06.267Z,996.14
2019-03-17T03:18:06.255Z,996.12
2019-03-17T03:19:06.252Z,996.13
2019-03-17T03:20:06.231Z,996.07
2019-03-17T03:21:06.218Z,996.10
2019-03-17T03:22:06.487Z,996.07
2019-03-17T03:23:06.202Z,996.05
2019-03-17T03:24:06.190Z,996.05
2019-03-17T03:25:06.175Z,996.04
2019-03-17T03:26:06.169Z,996.09
2019-03-17T03:27:06.160Z,996.08
2019-03-17T03:28:06.429Z,996.06
2019-03-17T03:29:06.136Z,996.03
2019-03-17T03:30:06.122Z,996.02
2019-03-17T03:31:06.111Z,995.97
2019-03-17T03:32:06.100Z,995.94
2019-03-17T03:33:06.091Z,995.95
2019-03-17T03:34:07.807Z,995.98
2019-03-17T03:35:06.078Z,995.92
2019-03-17T03:36:11.307Z,995.92
2019-03-17T03:37:07.040Z,995.95
2019-03-17T03:38:06.034Z,996.01
2019-03-17T03:39:06.020Z,995.94
2019-03-17T03:40:06.339Z,995.99
2019-03-17T03:41:05.998Z,996.00
2019-03-17T03:42:05.988Z,996.02
2019-03-17T03:43:05.974Z,996.05
2019-03-17T03:44:05.971Z,996.05
2019-03-17T03:45:05.973Z,996.05
2019-03-17T03:46:06.267Z,996.04
2019-03-17T03:47:05.931Z,995.98
2019-03-17T03:48:05.920Z,996.00
2019-03-17T03:49:05.908Z,995.97
2019-03-17T03:50:05.898Z,995.94
2019-03-17T03:51:05.887Z,995.89
2019-03-17T03:52:06.161Z,995.85
2019-03-17T03:53:05.867Z,995.86
2019-03-17T03:54:05.854Z,995.84
2019-03-17T03:55:05.842Z,995.74
2019-03-17T03:56:05.833Z,995.75
2019-03-17T03:57:05.826Z,995.75
2019-03-17T03:58:05.814Z,995.75
2019-03-17T03:59:05.798Z,995.70
2019-03-17T04:00:05.789Z,995.75
2019-03-17T04:01:05.775Z,995.68
2019-03-17T04:02:05.768Z,995.72
2019-03-17T04:03:05.755Z,995.75
2019-03-17T04:04:05.765Z,995.69
2019-03-17T04:05:05.753Z,995.64
2019-03-17T04:06:05.721Z,995.68
2019-03-17T04:07:05.707Z,995.62
2019-03-17T04:08:05.697Z,995.69
2019-03-17T04:09:05.691Z,995.70
2019-03-17T04:10:05.943Z,995.67
2019-03-17T04:11:05.664Z,995.65
2019-03-17T04:12:05.659Z,995.66
2019-03-17T04:13:05.643Z,995.62
2019-03-17T04:14:05.631Z,995.56
2019-03-17T04:15:05.618Z,995.54
2019-03-17T04:16:05.613Z,995.56
2019-03-17T04:17:05.596Z,995.58
2019-03-17T04:18:05.593Z,995.56
2019-03-17T04:19:05.575Z,995.59
2019-03-17T04:20:05.562Z,995.56
2019-03-17T04:21:05.552Z,995.58
2019-03-17T04:22:05.871Z,995.55
2019-03-17T04:23:05.531Z,995.55
2019-03-17T04:24:05.520Z,995.55
2019-03-17T04:25:05.507Z,995.53
2019-03-17T04:26:05.495Z,995.45
2019-03-17T04:27:05.485Z,995.53
2019-03-17T04:28:05.747Z,995.47
2019-03-17T04:29:05.462Z,995.48
2019-03-17T04:30:05.454Z,995.47
2019-03-17T04:31:05.566Z,995.44
2019-03-17T04:32:05.438Z,995.36
2019-03-17T04:33:05.426Z,995.39
2019-03-17T04:34:05.429Z,995.37
2019-03-17T04:35:05.425Z,995.33
2019-03-17T04:36:05.390Z,995.31
2019-03-17T04:37:05.373Z,995.34
2019-03-17T04:38:05.363Z,995.35
2019-03-17T04:39:05.351Z,995.34
2019-03-17T04:40:07.554Z,995.28
2019-03-17T04:41:05.331Z,995.28
2019-03-17T04:42:05.318Z,995.27
2019-03-17T04:43:05.322Z,995.25
2019-03-17T04:44:05.295Z,995.21
2019-03-17T04:45:05.284Z,995.20
2019-03-17T04:46:05.549Z,995.16
2019-03-17T04:47:05.262Z,995.12
2019-03-17T04:48:05.253Z,995.17
2019-03-17T04:49:05.240Z,995.16
2019-03-17T04:50:05.228Z,995.14
2019-03-17T04:51:05.239Z,995.13
2019-03-17T04:52:05.215Z,995.15
2019-03-17T04:53:05.194Z,995.16
2019-03-17T04:54:05.190Z,995.19
2019-03-17T04:55:05.172Z,995.11
2019-03-17T04:56:05.163Z,995.15
2019-03-17T04:57:05.169Z,995.12
2019-03-17T04:58:05.159Z,995.11
2019-03-17T04:59:05.129Z,995.13
2019-03-17T05:00:05.117Z,995.06
2019-03-17T05:01:05.106Z,995.09
2019-03-17T05:02:05.099Z,995.10
2019-03-17T05:03:05.085Z,995.10
2019-03-17T05:04:05.079Z,995.10
2019-03-17T05:05:05.061Z,995.12
2019-03-17T05:06:05.053Z,995.08
2019-03-17T05:07:05.040Z,994.99
2019-03-17T05:08:05.027Z,995.06
2019-03-17T05:09:05.020Z,995.03
2019-03-17T05:10:05.300Z,994.99
2019-03-17T05:11:04.994Z,995.03
2019-03-17T05:12:04.986Z,995.02
2019-03-17T05:13:04.973Z,995.09
2019-03-17T05:14:04.961Z,995.05
2019-03-17T05:15:04.951Z,995.05
2019-03-17T05:16:05.220Z,995.06
2019-03-17T05:17:04.928Z,995.06
2019-03-17T05:18:04.920Z,995.06
2019-03-17T05:19:04.905Z,995.01
2019-03-17T05:20:04.897Z,995.08
2019-03-17T05:21:04.882Z,995.05
2019-03-17T05:22:04.895Z,995.05
2019-03-17T05:23:06.065Z,994.99
2019-03-17T05:24:04.856Z,994.92
2019-03-17T05:25:04.841Z,994.91
2019-03-17T05:26:04.829Z,994.96
2019-03-17T05:27:04.823Z,994.93
2019-03-17T05:28:05.080Z,994.90
2019-03-17T05:29:04.793Z,994.92
2019-03-17T05:30:04.783Z,994.93
2019-03-17T05:31:04.773Z,994.86
2019-03-17T05:32:04.762Z,994.84
2019-03-17T05:33:04.749Z,994.84
2019-03-17T05:34:04.746Z,994.91
2019-03-17T05:35:04.728Z,994.95
2019-03-17T05:36:04.715Z,994.91
2019-03-17T05:37:06.413Z,994.83
2019-03-17T05:38:04.695Z,994.85
2019-03-17T05:39:04.683Z,994.79
2019-03-17T05:40:04.679Z,994.81
2019-03-17T05:41:04.661Z,994.80
2019-03-17T05:42:04.653Z,994.86
2019-03-17T05:43:04.639Z,994.85
2019-03-17T05:44:04.627Z,994.84
2019-03-17T05:45:04.615Z,994.85
2019-03-17T05:46:04.881Z,994.83
2019-03-17T05:47:04.593Z,994.81
2019-03-17T05:48:04.582Z,994.78
2019-03-17T05:49:04.572Z,994.82
2019-03-17T05:50:04.562Z,994.80
2019-03-17T05:51:04.551Z,994.83
2019-03-17T05:52:04.814Z,994.84
2019-03-17T05:53:04.525Z,994.80
2019-03-17T05:54:04.515Z,994.83
2019-03-17T05:55:04.503Z,994.81
2019-03-17T05:56:04.492Z,994.80
2019-03-17T05:57:04.482Z,994.79
2019-03-17T05:58:04.493Z,994.83
2019-03-17T05:59:04.460Z,994.80
2019-03-17T06:00:04.449Z,994.84
2019-03-17T06:01:04.438Z,994.73
2019-03-17T06:02:04.427Z,994.69
2019-03-17T06:03:04.416Z,994.79
2019-03-17T06:04:04.750Z,994.80
2019-03-17T06:05:04.392Z,994.77
2019-03-17T06:06:04.382Z,994.82
2019-03-17T06:07:04.371Z,994.81
2019-03-17T06:08:04.359Z,994.82
2019-03-17T06:09:04.352Z,994.79
2019-03-17T06:10:04.344Z,994.77
2019-03-17T06:11:04.326Z,994.77
2019-03-17T06:12:04.317Z,994.79
2019-03-17T06:13:04.304Z,994.81
2019-03-17T06:14:04.293Z,994.80
2019-03-17T06:15:04.280Z,994.81
2019-03-17T06:16:04.277Z,994.82
2019-03-17T06:17:04.261Z,994.77
2019-03-17T06:18:04.247Z,994.78
2019-03-17T06:19:04.237Z,994.77
2019-03-17T06:20:04.225Z,994.76
2019-03-17T06:21:04.218Z,994.78
2019-03-17T06:22:04.491Z,994.75
2019-03-17T06:23:04.192Z,994.81
2019-03-17T06:24:04.186Z,994.76
2019-03-17T06:25:04.175Z,994.77
2019-03-17T06:26:04.160Z,994.77
2019-03-17T06:27:04.147Z,994.74
2019-03-17T06:28:04.157Z,994.76
2019-03-17T06:29:04.125Z,994.83
2019-03-17T06:30:04.115Z,994.81
2019-03-17T06:31:04.106Z,994.81
2019-03-17T06:32:04.097Z,994.77
2019-03-17T06:33:04.084Z,994.81
2019-03-17T06:34:04.364Z,994.80
2019-03-17T06:35:04.058Z,994.81
2019-03-17T06:36:04.053Z,994.80
2019-03-17T06:37:04.045Z,994.79
2019-03-17T06:38:04.025Z,994.79
2019-03-17T06:39:04.016Z,994.83
2019-03-17T06:40:04.293Z,994.88
2019-03-17T06:41:04.447Z,994.89
2019-03-17T06:42:03.979Z,994.96
2019-03-17T06:43:03.968Z,994.89
2019-03-17T06:44:03.958Z,994.91
2019-03-17T06:45:03.949Z,994.88
2019-03-17T06:46:04.281Z,994.88
2019-03-17T06:47:05.877Z,994.87
2019-03-17T06:48:03.918Z,994.87
2019-03-17T06:49:03.903Z,994.90
2019-03-17T06:50:03.891Z,994.87
2019-03-17T06:51:03.881Z,994.93
2019-03-17T06:52:03.879Z,994.87
2019-03-17T06:53:03.859Z,994.89
2019-03-17T06:54:03.848Z,994.87
2019-03-17T06:55:03.845Z,994.87
2019-03-17T06:56:03.825Z,994.79
2019-03-17T06:57:03.814Z,994.80
2019-03-17T06:58:03.809Z,994.84
2019-03-17T06:59:03.796Z,994.84
2019-03-17T07:00:03.779Z,994.85
2019-03-17T07:01:03.772Z,994.85
2019-03-17T07:02:03.756Z,994.84
2019-03-17T07:03:03.754Z,994.80
2019-03-17T07:04:04.055Z,994.81
2019-03-17T07:05:03.726Z,994.77
2019-03-17T07:06:03.714Z,994.77
2019-03-17T07:07:03.703Z,994.78
2019-03-17T07:08:03.691Z,994.75
2019-03-17T07:09:03.682Z,994.77
2019-03-17T07:10:03.947Z,994.81
2019-03-17T07:11:03.657Z,994.85
2019-03-17T07:12:03.650Z,994.80
2019-03-17T07:13:03.642Z,994.81
2019-03-17T07:14:03.623Z,994.77
2019-03-17T07:15:03.615Z,994.79
2019-03-17T07:16:03.618Z,994.73
2019-03-17T07:17:03.590Z,994.71
2019-03-17T07:18:03.579Z,994.70
2019-03-17T07:19:03.569Z,994.79
2019-03-17T07:20:03.557Z,994.79
2019-03-17T07:21:03.547Z,994.68
2019-03-17T07:22:03.863Z,994.74
2019-03-17T07:23:03.526Z,994.72
2019-03-17T07:24:03.512Z,994.72
2019-03-17T07:25:03.502Z,994.73
2019-03-17T07:26:03.490Z,994.72
2019-03-17T07:27:03.478Z,994.70
2019-03-17T07:28:03.504Z,994.69
2019-03-17T07:29:03.461Z,994.67
2019-03-17T07:30:03.450Z,994.76
2019-03-17T07:31:03.434Z,994.75
2019-03-17T07:32:03.425Z,994.74
2019-03-17T07:33:03.416Z,994.74
2019-03-17T07:34:03.679Z,994.68
2019-03-17T07:35:03.389Z,994.71
2019-03-17T07:36:03.383Z,994.77
2019-03-17T07:37:03.369Z,994.72
2019-03-17T07:38:03.358Z,994.72
2019-03-17T07:39:11.719Z,994.71
2019-03-17T07:40:04.356Z,994.72
2019-03-17T07:41:03.329Z,994.72
2019-03-17T07:42:03.313Z,994.73
2019-03-17T07:43:03.307Z,994.72
2019-03-17T07:44:03.300Z,994.74
2019-03-17T07:45:03.281Z,994.72
2019-03-17T07:46:03.577Z,994.72
2019-03-17T07:47:03.257Z,994.70
2019-03-17T07:48:03.245Z,994.69
2019-03-17T07:49:03.237Z,994.73
2019-03-17T07:50:03.227Z,994.61
2019-03-17T07:51:03.213Z,994.64
2019-03-17T07:52:03.210Z,994.60
2019-03-17T07:53:03.190Z,994.57
2019-03-17T07:54:03.265Z,994.66
2019-03-17T07:55:03.168Z,994.64
2019-03-17T07:56:03.157Z,994.64
2019-03-17T07:57:03.146Z,994.59
2019-03-17T07:58:03.456Z,994.60
2019-03-17T07:59:03.128Z,994.54
2019-03-17T08:00:03.113Z,994.60
2019-03-17T08:01:03.102Z,994.57
2019-03-17T08:02:03.091Z,994.57
2019-03-17T08:03:03.088Z,994.53
2019-03-17T08:04:03.074Z,994.48
2019-03-17T08:05:03.059Z,994.53
2019-03-17T08:06:03.050Z,994.50
2019-03-17T08:07:03.035Z,994.49
2019-03-17T08:08:09.359Z,994.49
2019-03-17T08:09:04.287Z,994.52
2019-03-17T08:10:03.008Z,994.55
2019-03-17T08:11:02.993Z,994.51
2019-03-17T08:12:02.987Z,994.50
2019-03-17T08:13:02.969Z,994.56
2019-03-17T08:14:02.957Z,994.50
2019-03-17T08:15:03.218Z,994.55
2019-03-17T08:16:02.937Z,994.62
2019-03-17T08:17:02.925Z,994.68
2019-03-17T08:18:02.914Z,994.64
2019-03-17T08:19:02.902Z,994.66
2019-03-17T08:20:02.891Z,994.62
2019-03-17T08:21:03.155Z,994.66
2019-03-17T08:22:02.868Z,994.66
2019-03-17T08:23:02.860Z,994.61
2019-03-17T08:24:02.847Z,994.65
2019-03-17T08:25:02.837Z,994.59
2019-03-17T08:26:02.826Z,994.65
2019-03-17T08:27:03.140Z,994.61
2019-03-17T08:28:02.802Z,994.62
2019-03-17T08:29:02.790Z,994.60
2019-03-17T08:30:02.781Z,994.66
2019-03-17T08:31:02.769Z,994.66
2019-03-17T08:32:02.759Z,994.59
2019-03-17T08:33:04.336Z,994.62
2019-03-17T08:34:02.738Z,994.64
2019-03-17T08:35:02.724Z,994.62
2019-03-17T08:36:02.713Z,994.64
2019-03-17T08:37:02.710Z,994.64
2019-03-17T08:38:02.691Z,994.65
2019-03-17T08:39:02.960Z,994.64
2019-03-17T08:40:02.669Z,994.65
2019-03-17T08:41:02.696Z,994.56
2019-03-17T08:42:02.649Z,994.61
2019-03-17T08:43:02.638Z,994.64
2019-03-17T08:44:02.627Z,994.62
2019-03-17T08:45:02.637Z,994.58
2019-03-17T08:46:02.605Z,994.54
2019-03-17T08:47:02.598Z,994.61
2019-03-17T08:48:02.582Z,994.63
2019-03-17T08:49:02.568Z,994.60
2019-03-17T08:50:02.563Z,994.64
2019-03-17T08:51:02.824Z,994.67
2019-03-17T08:52:02.536Z,994.61
2019-03-17T08:53:02.530Z,994.60
2019-03-17T08:54:02.514Z,994.56
2019-03-17T08:55:02.510Z,994.64
2019-03-17T08:56:02.494Z,994.61
2019-03-17T08:57:02.504Z,994.66
2019-03-17T08:58:02.470Z,994.68
2019-03-17T08:59:02.461Z,994.64
2019-03-17T09:00:02.449Z,994.68
2019-03-17T09:01:02.435Z,994.67
2019-03-17T09:02:02.425Z,994.70
2019-03-17T09:03:02.738Z,994.72
2019-03-17T09:04:02.402Z,994.66
2019-03-17T09:05:02.393Z,994.65
2019-03-17T09:06:02.380Z,994.64
2019-03-17T09:07:02.369Z,994.62
2019-03-17T09:08:02.358Z,994.68
2019-03-17T09:09:02.639Z,994.78
2019-03-17T09:10:02.338Z,994.81
2019-03-17T09:11:02.327Z,994.76
2019-03-17T09:12:02.319Z,994.80
2019-03-17T09:13:04.281Z,994.75
2019-03-17T09:14:02.293Z,994.76
2019-03-17T09:15:02.569Z,994.79
2019-03-17T09:16:02.272Z,994.79
2019-03-17T09:17:13.803Z,994.75
2019-03-17T09:18:03.250Z,994.74
2019-03-17T09:19:02.321Z,994.77
2019-03-17T09:20:02.230Z,994.78
2019-03-17T09:21:02.498Z,994.71
2019-03-17T09:22:02.204Z,994.67
2019-03-17T09:23:02.195Z,994.67
2019-03-17T09:24:02.185Z,994.66
2019-03-17T09:25:02.175Z,994.68
2019-03-17T09:26:02.160Z,994.72
2019-03-17T09:27:02.168Z,994.74
2019-03-17T09:28:02.138Z,994.77
2019-03-17T09:29:02.127Z,994.80
2019-03-17T09:30:02.115Z,994.73
2019-03-17T09:31:04.797Z,994.71
2019-03-17T09:32:03.455Z,994.74
2019-03-17T09:33:02.084Z,994.68
2019-03-17T09:34:02.072Z,994.75
2019-03-17T09:35:02.059Z,994.70
2019-03-17T09:36:02.049Z,994.69
2019-03-17T09:37:02.037Z,994.71
2019-03-17T09:38:02.359Z,994.72
2019-03-17T09:39:02.015Z,994.72
2019-03-17T09:40:02.011Z,994.74
2019-03-17T09:41:01.992Z,994.76
2019-03-17T09:42:01.982Z,994.63
2019-03-17T09:43:01.971Z,994.68
2019-03-17T09:44:02.255Z,994.72
2019-03-17T09:45:01.949Z,994.70
2019-03-17T09:46:01.938Z,994.66
2019-03-17T09:47:01.926Z,994.63
2019-03-17T09:48:01.918Z,994.58
2019-03-17T09:49:01.905Z,994.57
2019-03-17T09:50:01.902Z,994.52
2019-03-17T09:51:01.881Z,994.56
2019-03-17T09:52:01.869Z,994.52
2019-03-17T09:53:01.859Z,994.53
2019-03-17T09:54:01.851Z,994.63
2019-03-17T09:55:01.840Z,994.61
2019-03-17T09:56:02.116Z,994.67
2019-03-17T09:57:01.815Z,994.62
2019-03-17T09:58:01.805Z,994.70
2019-03-17T09:59:01.796Z,994.73
2019-03-17T10:00:01.786Z,994.64
2019-03-17T10:01:01.770Z,994.70
2019-03-17T10:02:02.037Z,994.71
2019-03-17T10:03:01.749Z,994.67
2019-03-17T10:04:01.737Z,994.68
2019-03-17T10:05:01.728Z,994.69
2019-03-17T10:06:01.719Z,994.61
2019-03-17T10:07:01.704Z,994.58
2019-03-17T10:08:01.702Z,994.64
2019-03-17T10:09:01.685Z,994.66
2019-03-17T10:10:01.677Z,994.58
2019-03-17T10:11:01.662Z,994.59
2019-03-17T10:12:01.647Z,994.60
2019-03-17T10:13:01.640Z,994.64
2019-03-17T10:14:01.648Z,994.58
2019-03-17T10:15:01.616Z,994.56
2019-03-17T10:16:01.605Z,994.54
2019-03-17T10:17:01.594Z,994.61
2019-03-17T10:18:01.585Z,994.60
2019-03-17T10:19:01.576Z,994.66
2019-03-17T10:20:01.858Z,994.70
2019-03-17T10:21:01.549Z,994.68
2019-03-17T10:22:01.539Z,994.68
2019-03-17T10:23:01.527Z,994.68
2019-03-17T10:24:01.518Z,994.70
2019-03-17T10:25:01.506Z,994.65
2019-03-17T10:26:01.769Z,994.70
2019-03-17T10:27:01.482Z,994.74
2019-03-17T10:28:01.472Z,994.71
2019-03-17T10:29:01.461Z,994.76
2019-03-17T10:30:01.454Z,994.76
2019-03-17T10:31:01.440Z,994.72
2019-03-17T10:32:01.692Z,994.69
2019-03-17T10:33:01.415Z,994.61
2019-03-17T10:34:01.410Z,994.69
2019-03-17T10:35:01.395Z,994.75
2019-03-17T10:36:01.382Z,994.74
2019-03-17T10:37:01.371Z,994.72
2019-03-17T10:38:01.639Z,994.75
2019-03-17T10:39:11.848Z,994.74
2019-03-17T10:40:02.338Z,994.71
2019-03-17T10:41:01.327Z,994.77
2019-03-17T10:42:01.322Z,994.76
2019-03-17T10:43:01.307Z,994.77
2019-03-17T10:44:01.620Z,994.76
2019-03-17T10:45:01.285Z,994.83
2019-03-17T10:46:01.271Z,994.79
2019-03-17T10:47:01.261Z,994.78
2019-03-17T10:48:01.252Z,994.68
2019-03-17T10:49:01.240Z,994.72
2019-03-17T10:50:01.570Z,994.76
2019-03-17T10:51:01.217Z,994.73
2019-03-17T10:52:01.205Z,994.73
2019-03-17T10:53:01.196Z,994.76
2019-03-17T10:54:01.184Z,994.80
2019-03-17T10:55:01.172Z,994.76
2019-03-17T10:56:01.176Z,994.79
2019-03-17T10:57:01.153Z,994.79
2019-03-17T10:58:01.141Z,994.77
2019-03-17T10:59:01.131Z,994.84
2019-03-17T11:00:01.117Z,994.84
2019-03-17T11:01:01.107Z,994.78
2019-03-17T11:02:01.371Z,994.77
2019-03-17T11:03:01.084Z,994.73
2019-03-17T11:04:01.073Z,994.71
2019-03-17T11:05:01.062Z,994.72
2019-03-17T11:06:01.052Z,994.67
2019-03-17T11:07:01.043Z,994.70
2019-03-17T11:08:01.051Z,994.74
2019-03-17T11:09:01.089Z,994.78
2019-03-17T11:10:01.006Z,994.76
2019-03-17T11:11:00.994Z,994.88
2019-03-17T11:12:00.984Z,994.78
2019-03-17T11:13:00.973Z,994.86
2019-03-17T11:14:01.241Z,994.84
2019-03-17T11:15:00.954Z,994.88
2019-03-17T11:16:00.940Z,994.84
2019-03-17T11:17:00.928Z,994.86
2019-03-17T11:18:00.920Z,994.85
2019-03-17T11:19:00.907Z,994.88
2019-03-17T11:20:00.908Z,994.85
2019-03-17T11:21:00.884Z,994.85
2019-03-17T11:22:00.873Z,994.88
2019-03-17T11:23:00.861Z,994.84
2019-03-17T11:24:00.850Z,994.90
2019-03-17T11:25:00.839Z,994.82
2019-03-17T11:26:01.107Z,994.76
2019-03-17T11:27:00.820Z,994.76
2019-03-17T11:28:00.807Z,994.81
2019-03-17T11:29:00.795Z,994.81
2019-03-17T11:30:00.787Z,994.81
2019-03-17T11:31:00.774Z,994.79
2019-03-17T11:32:01.102Z,994.71
2019-03-17T11:33:00.777Z,994.77
2019-03-17T11:34:00.740Z,994.76
2019-03-17T11:35:00.734Z,994.68
2019-03-17T11:36:00.717Z,994.65
2019-03-17T11:37:00.719Z,994.70
2019-03-17T11:38:00.980Z,994.67
2019-03-17T11:39:00.685Z,994.69
2019-03-17T11:40:00.675Z,994.64
2019-03-17T11:41:00.663Z,994.64
2019-03-17T11:42:00.651Z,994.70
2019-03-17T11:43:00.641Z,994.67
2019-03-17T11:44:00.907Z,994.79
2019-03-17T11:45:00.622Z,994.74
2019-03-17T11:46:00.607Z,994.81
2019-03-17T11:47:00.595Z,994.71
2019-03-17T11:48:00.591Z,994.75
2019-03-17T11:49:00.573Z,994.80
2019-03-17T11:50:00.572Z,994.78
2019-03-17T11:51:00.552Z,994.84
2019-03-17T11:52:00.541Z,994.87
2019-03-17T11:53:00.530Z,994.85
2019-03-17T11:54:00.519Z,994.84
2019-03-17T11:55:00.511Z,994.76
2019-03-17T11:56:00.781Z,994.88
2019-03-17T11:57:00.485Z,994.93
2019-03-17T11:58:00.474Z,994.87
2019-03-17T11:59:00.470Z,994.89
2019-03-17T12:00:00.454Z,994.92
2019-03-17T12:01:00.442Z,994.85
2019-03-17T12:02:00.438Z,994.87
2019-03-17T12:03:00.422Z,994.91
2019-03-17T12:04:00.407Z,994.98
2019-03-17T12:05:00.397Z,994.95
2019-03-17T12:06:00.385Z,994.95
2019-03-17T12:07:00.375Z,994.91
2019-03-17T12:08:00.642Z,994.97
2019-03-17T12:09:00.353Z,994.97
2019-03-17T12:10:00.447Z,994.97
2019-03-17T12:11:00.331Z,995.02
2019-03-17T12:12:00.320Z,994.98
2019-03-17T12:13:00.308Z,994.92
2019-03-17T12:14:00.319Z,994.93
2019-03-17T12:15:00.375Z,994.89
2019-03-17T12:16:00.274Z,994.88
2019-03-17T12:17:00.264Z,994.85
2019-03-17T12:18:00.253Z,994.79
2019-03-17T12:19:00.242Z,994.73
2019-03-17T12:20:00.554Z,994.77
2019-03-17T12:21:00.219Z,994.72
2019-03-17T12:22:09.042Z,994.75
2019-03-17T12:23:01.195Z,994.82
2019-03-17T12:24:00.186Z,994.73
2019-03-17T12:25:00.369Z,994.77
2019-03-17T12:26:00.455Z,994.86
2019-03-17T12:27:00.153Z,994.89
2019-03-17T12:28:00.143Z,994.96